• Join FlightAware (Why Join?)
  • Login
  • US Flag 
Gobble Gobble! 
09:51AM EST


 

Airport Tracker/Info


-or-


 

Live Flight TrackerFlight Track Log ✈ BJS542 ✈ 12-Aug-2013 ✈ KEEN - CYQI

Flight Track Log - Related Links

Times and Time Zones

All times are in EDT time to prevent confusion due to time zone crossing. See the BJS542 flight status page for this flight to view local times or setup timezone preferences in your user account.

Time Position Orientation Groundspeed Altitude Reporting Facility
EDT Latitude Longitude Course Direction KTS MPH feet Rate Location/Type
11:22AM 42.9358 -72.2161 118° Southeast 467 537 3,900  Level Boston Center
11:23AM 42.9022 -72.1311 118° Southeast 280 322 7,000 3,180 Climbing Boston Center
11:24AM 42.9583 -72.0542 45° Northeast 234 269 10,300 1,980 Climbing Boston Center
11:25AM 43.0394 -72.0139 20° North 268 308 11,100 480 Climbing Boston Center
11:26AM 43.1372 -71.9622 21° North 323 372 11,300 480 Climbing Boston Center
11:27AM 43.2183 -71.9244 19° North 342 394 12,100 1,080 Climbing Boston Center
11:28AM 43.2781 -71.8128 54° Northeast 326 375 13,500 1,500 Climbing Boston Center
11:29AM 43.2961 -71.6869 79° East 349 402 15,100 1,740 Climbing Boston Center
11:30AM 43.3158 -71.5269 80° East 371 427 17,000 1,860 Climbing Boston Center
11:31AM 43.3294 -71.4011 81° East 396 456 18,900 1,920 Climbing Boston Center
11:32AM 43.3544 -71.2122 80° East 411 473 20,900 2,520 Climbing Boston Center
11:33AM 43.3756 -71.0519 80° East 429 494 24,000 2,640 Climbing Boston Center
11:34AM 43.3961 -70.8714 81° East 451 519 26,300 2,100 Climbing Boston Center
11:35AM 43.4144 -70.6908 82° East 470 541 28,300 1,860 Climbing Boston Center
11:36AM 43.4364 -70.5044 81° East 485 558 30,100 1,320 Climbing Boston Center
11:37AM 43.4581 -70.3064 81° East 507 583 31,000 420 Climbing Boston Center
11:38AM 43.4767 -70.0967 83° East 527 606 31,000  Level Boston Center
11:39AM 43.4989 -69.8697 82° East 539 620 31,000  Level Boston Center
11:40AM 43.5192 -69.6597 82° East 546 628 31,000  Level Boston Center
11:41AM 43.5408 -69.4525 82° East 546 628 31,000  Level Boston Center
11:42AM 43.5625 -69.2450 82° East 551 634 31,000  Level Boston Center
11:43AM 43.5836 -69.0375 82° East 546 628 31,000  Level Boston Center
11:44AM 43.6022 -68.8300 83° East 540 621 31,000  Level Boston Center
11:45AM 43.6000 -68.6833 91° East 550 633 31,000  Level Moncton Center
11:46AM 43.6333 -68.4833 77° East 560 644 31,000 -240 Level Moncton Center
11:47AM 43.6333 -68.2833 90° East 550 633 30,600 -960 Descending Moncton Center
11:48AM 43.6500 -68.0667 84° East 550 633 29,100 -1,560 Descending Moncton Center
11:49AM 43.6833 -67.8333 79° East 550 633 27,500 -2,100 Descending Moncton Center
11:50AM 43.6833 -67.6500 90° East 530 610 25,000 -2,580 Descending Moncton Center
11:51AM 43.7167 -67.4500 77° East 500 575 22,400 -2,520 Descending Moncton Center
11:52AM 43.7167 -67.2833 90° East 470 541 20,000 -2,460 Descending Moncton Center
11:53AM 43.7333 -67.1000 83° East 450 518 17,500 -2,460 Descending Moncton Center
11:54AM 43.7500 -66.9667 80° East 430 495 15,100 -1,920 Descending Moncton Center
11:55AM 43.7667 -66.8000 82° East 400 460 13,700 -1,500 Descending Moncton Center
11:56AM 43.7833 -66.6500 81° East 390 449 12,100 -1,560 Descending Moncton Center
11:57AM 43.7833 -66.5333 90° East 360 414 10,600 -2,100 Descending Moncton Center
11:58AM 43.7833 -66.3833 90° East 330 380 7,900 -2,400 Descending Moncton Center
11:59AM 43.8000 -66.2667 79° East 290 334 5,800 -1,980 Descending Moncton Center
12:01PM 43.8000 -66.0667 90° East 270 311 2,000 -1,920 Descending Moncton Center
12:03PM 43.8167 -66.0833 90° East  Level FlightAware Approximate
12:10PM 43.8269 -66.0881 90° East  Level Estimated
12:11PM 43.8269 -66.0881 90° East  Level Estimated
12:12PM 43.8269 -66.0881 90° East  Level Estimated
12:13PM 43.8269 -66.0881 90° East  Level Estimated
12:14PM 43.8269 -66.0881 90° East  Level Estimated
12:15PM 43.8269 -66.0881 90° East  Level Estimated
12:16PM 43.8269 -66.0881 90° East  Level Estimated
12:17PM 43.8269 -66.0881 90° East  Level Estimated
12:18PM 43.8269 -66.0881 90° East  Level Estimated
12:19PM 43.8269 -66.0881 90° East  Level Estimated
12:20PM 43.8269 -66.0881 90° East  Level Estimated